| time (UTC) | temp C | wind direction | speed KPH | gust KPH | rain 1hr cm | rain 24hr cm | rain mn cm | humidity % | barometer mb |
| 20260506202058 | 13 | 98 | 3.2 | 9.7 | 0.15 | 0.48 | 0.48 | 100 | 1006.4 |
| 20260506201538 | 13 | 180 | 4.8 | 17.7 | 0.15 | 0.48 | 0.48 | 100 | 1006.5 |
| 20260506201038 | 13 | 94 | 4.8 | 17.7 | 0.15 | 0.48 | 0.48 | 100 | 1006.5 |
| 20260506200543 | 13 | 118 | 4.8 | 11.3 | 0.13 | 0.46 | 0.46 | 100 | 1006.5 |
| 20260506200042 | 13 | 136 | 3.2 | 12.9 | 0.15 | 0.46 | 0.46 | 100 | 1006.6 |
| 20260506195544 | 13 | 158 | 6.4 | 19.3 | 0.15 | 0.46 | 0.46 | 100 | 1006.6 |
| 20260506195044 | 13 | 157 | 4.8 | 19.3 | 0.15 | 0.43 | 0.43 | 100 | 1006.7 |
| 20260506194524 | 13 | 106 | 3.2 | 9.7 | 0.15 | 0.43 | 0.43 | 100 | 1006.8 |
| 20260506194105 | 13 | 152 | 3.2 | 9.7 | 0.13 | 0.41 | 0.41 | 100 | 1006.9 |
| 20260506193524 | 13 | 111 | 3.2 | 12.9 | 0.10 | 0.38 | 0.38 | 100 | 1006.9 |
| 20260506193025 | 13 | 153 | 4.8 | 12.9 | 0.08 | 0.36 | 0.36 | 100 | 1007.0 |
| 20260506192546 | 13 | 138 | 1.6 | 9.7 | 0.05 | 0.33 | 0.33 | 100 | 1007.0 |
| 20260506192025 | 13 | 158 | 3.2 | 11.3 | 0.05 | 0.33 | 0.33 | 100 | 1007.0 |
| 20260506191525 | 13 | 169 | 4.8 | 11.3 | 0.05 | 0.33 | 0.33 | 100 | 1007.0 |
| 20260506191044 | 13 | 166 | 4.8 | 16.1 | 0.08 | 0.33 | 0.33 | 100 | 1007.0 |
| 20260506190524 | 13 | 134 | 4.8 | 14.5 | 0.08 | 0.33 | 0.33 | 100 | 1007.1 |
| 20260506190024 | 13 | 143 | 3.2 | 16.1 | 0.05 | 0.30 | 0.30 | 100 | 1007.1 |
| 20260506185530 | 13 | 149 | 6.4 | 16.1 | 0.08 | 0.30 | 0.30 | 100 | 1007.2 |
| 20260506185030 | 14 | 94 | 3.2 | 12.9 | 0.05 | 0.28 | 0.28 | 100 | 1007.3 |
| 20260506184550 | 14 | 162 | 3.2 | 12.9 | 0.08 | 0.28 | 0.28 | 100 | 1007.4 |
| 20260506184029 | 14 | 140 | 3.2 | 11.3 | 0.08 | 0.28 | 0.28 | 100 | 1007.3 |
| 20260506183550 | 14 | 136 | 4.8 | 14.5 | 0.08 | 0.28 | 0.28 | 100 | 1007.3 |
| 20260506182539 | 14 | 161 | 6.4 | 14.5 | 0.10 | 0.28 | 0.28 | 100 | 1007.4 |
| 20260506182101 | 14 | 120 | 3.2 | 11.3 | 0.10 | 0.28 | 0.28 | 100 | 1007.4 |
| 20260506181539 | 14 | 179 | 4.8 | 11.3 | 0.10 | 0.28 | 0.28 | 100 | 1007.6 |
| 20260506181040 | 14 | 176 | 3.2 | 11.3 | 0.10 | 0.25 | 0.25 | 100 | 1007.6 |
| 20260506180540 | 14 | 166 | 3.2 | 16.1 | 0.13 | 0.25 | 0.25 | 100 | 1007.6 |
| 20260506180100 | 14 | 169 | 8.0 | 16.1 | 0.15 | 0.25 | 0.25 | 100 | 1007.6 |
| 20260506175540 | 14 | 158 | 6.4 | 11.3 | 0.15 | 0.23 | 0.23 | 100 | 1007.4 |
| 20260506175041 | 14 | 144 | 6.4 | 9.7 | 0.18 | 0.23 | 0.23 | 100 | 1007.4 |
| 20260506174602 | 15 | 170 | 6.4 | 11.3 | 0.18 | 0.20 | 0.20 | 100 | 1007.5 |
| 20260506174102 | 15 | 163 | 4.8 | 16.1 | 0.18 | 0.20 | 0.20 | 100 | 1007.6 |
| 20260506173542 | 15 | 134 | 6.4 | 22.5 | 0.20 | 0.20 | 0.20 | 100 | 1007.5 |
| 20260506173042 | 15 | 162 | 4.8 | 22.5 | 0.20 | 0.20 | 0.20 | 100 | 1007.5 |
| 20260506172542 | 15 | 151 | 4.8 | 9.7 | 0.18 | 0.18 | 0.18 | 100 | 1007.7 |
| 20260506172043 | 15 | 126 | 4.8 | 6.4 | 0.18 | 0.18 | 0.18 | 100 | 1007.7 |
| 20260506171543 | 15 | 158 | 3.2 | 4.8 | 0.15 | 0.15 | 0.15 | 100 | 1007.9 |
| 20260506171104 | 15 | 158 | 3.2 | 11.3 | 0.15 | 0.15 | 0.15 | 100 | 1008.2 |
| 20260506170527 | 15 | 146 | 4.8 | 6.4 | 0.13 | 0.13 | 0.13 | 100 | 1008.4 |
| 20260506170028 | 15 | 147 | 3.2 | 8.0 | 0.10 | 0.10 | 0.10 | 100 | 1008.4 |
| 20260506165528 | 15 | 146 | 1.6 | 4.8 | 0.08 | 0.08 | 0.08 | 100 | 1008.7 |
| 20260506165028 | 15 | 152 | 3.2 | 8.0 | 0.05 | 0.05 | 0.05 | 100 | 1008.9 |
| 20260506164529 | 16 | 153 | 3.2 | 8.0 | 0.03 | 0.03 | 0.03 | 100 | 1009.0 |
| 20260506164029 | 16 | 109 | 3.2 | 8.0 | 0.00 | 0.00 | 0.00 | 100 | 1008.9 |
| 20260506163530 | 16 | 178 | 3.2 | 12.9 | 0.00 | 0.00 | 0.00 | 100 | 1008.9 |
| 20260506163029 | 16 | 145 | 4.8 | 14.5 | 0.00 | 0.00 | 0.00 | 100 | 1008.9 |
| 20260506162551 | 16 | 144 | 6.4 | 14.5 | 0.00 | 0.00 | 0.00 | 100 | 1008.8 |
| 20260506162030 | 16 | 111 | 3.2 | 11.3 | 0.00 | 0.00 | 0.00 | 100 | 1008.7 |
| 20260506161531 | 16 | 112 | 4.8 | 14.5 | 0.00 | 0.00 | 0.00 | 100 | 1008.8 |
| 20260506161051 | 17 | 160 | 6.4 | 14.5 | 0.00 | 0.00 | 0.00 | 100 | 1008.7 |
| 20260506160532 | 17 | 129 | 4.8 | 12.9 | 0.00 | 0.00 | 0.00 | 100 | 1008.7 |
| 20260506160032 | 17 | 175 | 4.8 | 11.3 | 0.00 | 0.00 | 0.00 | 100 | 1008.8 |
| 20260506155526 | 17 | 166 | 4.8 | 14.5 | 0.00 | 0.00 | 0.00 | 99 | 1008.9 |
| 20260506155028 | 17 | 126 | 8.0 | 24.1 | 0.00 | 0.00 | 0.00 | 99 | 1008.9 |
| 20260506154529 | 17 | 167 | 4.8 | 24.1 | 0.00 | 0.00 | 0.00 | 99 | 1009.0 |
| 20260506153540 | 17 | 155 | 4.8 | 16.1 | 0.00 | 0.00 | 0.00 | 98 | 1009.2 |
| 20260506153041 | 17 | 206 | 6.4 | 16.1 | 0.00 | 0.00 | 0.00 | 96 | 1009.2 |
| 20260506152526 | 17 | 157 | 6.4 | 14.5 | 0.00 | 0.00 | 0.00 | 97 | 1009.3 |
| 20260506152044 | 17 | 156 | 4.8 | 12.9 | 0.00 | 0.00 | 0.00 | 97 | 1009.2 |
| 20260506151525 | 17 | 90 | 4.8 | 9.7 | 0.00 | 0.00 | 0.00 | 97 | 1009.2 |
| 20260506151026 | 17 | 115 | 3.2 | 11.3 | 0.00 | 0.00 | 0.00 | 98 | 1009.3 |
| 20260506150547 | 17 | 120 | 4.8 | 11.3 | 0.00 | 0.00 | 0.00 | 98 | 1009.3 |
| 20260506150026 | 17 | 216 | 3.2 | 9.7 | 0.00 | 0.00 | 0.00 | 98 | 1009.3 |
| 20260506145527 | 17 | 273 | 3.2 | 17.7 | 0.00 | 0.00 | 0.00 | 98 | 1009.4 |
| 20260506145027 | 17 | 154 | 8.0 | 17.7 | 0.00 | 0.00 | 0.00 | 97 | 1009.3 |
| 20260506144528 | 17 | 123 | 8.0 | 14.5 | 0.00 | 0.00 | 0.00 | 98 | 1009.4 |
| 20260506144027 | 17 | 206 | 8.0 | 12.9 | 0.00 | 0.00 | 0.00 | 98 | 1009.4 |
| 20260506143528 | 17 | 10 | 4.8 | 14.5 | 0.00 | 0.00 | 0.00 | 98 | 1009.5 |
| 20260506143029 | 17 | 313 | 3.2 | 14.5 | 0.00 | 0.00 | 0.00 | 99 | 1009.5 |
| 20260506142530 | 17 | 113 | 4.8 | 11.3 | 0.00 | 0.00 | 0.00 | 99 | 1009.4 |
| 20260506142030 | 16 | 154 | 6.4 | 14.5 | 0.00 | 0.00 | 0.00 | 98 | 1009.5 |
| 20260506141536 | 16 | 148 | 6.4 | 14.5 | 0.00 | 0.00 | 0.00 | 99 | 1009.6 |
| 20260506141034 | 16 | 235 | 6.4 | 14.5 | 0.00 | 0.00 | 0.00 | 98 | 1009.6 |
| 20260506140554 | 16 | 157 | 6.4 | 12.9 | 0.00 | 0.00 | 0.00 | 99 | 1009.5 |
| 20260506140034 | 16 | 138 | 9.7 | 14.5 | 0.00 | 0.00 | 0.00 | 98 | 1009.4 |
| 20260506135535 | 16 | 148 | 6.4 | 14.5 | 0.00 | 0.00 | 0.00 | 99 | 1009.3 |
| 20260506135055 | 16 | 135 | 4.8 | 11.3 | 0.00 | 0.00 | 0.00 | 99 | 1009.4 |
| 20260506134556 | 16 | 95 | 3.2 | 12.9 | 0.00 | 0.00 | 0.00 | 100 | 1009.4 |
| 20260506134035 | 16 | 162 | 4.8 | 14.5 | 0.00 | 0.00 | 0.00 | 99 | 1009.4 |
| 20260506133556 | 16 | 148 | 6.4 | 22.5 | 0.00 | 0.00 | 0.00 | 99 | 1009.5 |
| 20260506133035 | 15 | 159 | 6.4 | 22.5 | 0.00 | 0.00 | 0.00 | 100 | 1009.3 |
| 20260506132535 | 15 | 137 | 3.2 | 17.7 | 0.00 | 0.00 | 0.00 | 100 | 1009.2 |
| 20260506132035 | 15 | 151 | 6.4 | 11.3 | 0.00 | 0.00 | 0.00 | 100 | 1009.2 |
| 20260506131536 | 15 | 167 | 4.8 | 14.5 | 0.00 | 0.00 | 0.00 | 100 | 1009.2 |
| 20260506131036 | 15 | 143 | 3.2 | 12.9 | 0.00 | 0.00 | 0.00 | 100 | 1009.4 |
| 20260506130537 | 15 | 148 | 4.8 | 14.5 | 0.00 | 0.00 | 0.00 | 100 | 1009.4 |
| 20260506130036 | 15 | 126 | 4.8 | 14.5 | 0.00 | 0.00 | 0.00 | 100 | 1009.5 |
| 20260506125537 | 15 | 141 | 3.2 | 11.3 | 0.00 | 0.10 | 0.00 | 100 | 1009.5 |
| 20260506125042 | 15 | 5 | 3.2 | 9.7 | 0.00 | 0.10 | 0.00 | 100 | 1009.4 |
| 20260506124543 | 14 | 140 | 3.2 | 8.0 | 0.00 | 0.10 | 0.00 | 100 | 1009.4 |
| 20260506124042 | 14 | 165 | 4.8 | 9.7 | 0.00 | 0.10 | 0.00 | 100 | 1009.6 |
| 20260506123543 | 14 | 143 | 4.8 | 8.0 | 0.00 | 0.10 | 0.00 | 100 | 1009.5 |
| 20260506123103 | 14 | 146 | 3.2 | 6.4 | 0.00 | 0.10 | 0.00 | 100 | 1009.7 |
| 20260506122543 | 14 | 142 | 1.6 | 11.3 | 0.00 | 0.10 | 0.00 | 100 | 1009.9 |
| 20260506122104 | 14 | 142 | 3.2 | 14.5 | 0.00 | 0.10 | 0.00 | 100 | 1009.9 |
| 20260506121524 | 14 | 160 | 6.4 | 14.5 | 0.00 | 0.10 | 0.00 | 100 | 1009.8 |
| 20260506121024 | 14 | 99 | 3.2 | 9.7 | 0.00 | 0.10 | 0.00 | 100 | 1009.9 |
| 20260506120546 | 14 | 143 | 3.2 | 11.3 | 0.00 | 0.10 | 0.00 | 100 | 1009.8 |
| 20260506120025 | 13 | 140 | 3.2 | 11.3 | 0.00 | 0.10 | 0.00 | 100 | 1009.8 |
| 20260506115525 | 13 | 178 | 4.8 | 11.3 | 0.00 | 0.10 | 0.00 | 100 | 1009.8 |
| 20260506115024 | 13 | 128 | 6.4 | 12.9 | 0.00 | 0.10 | 0.00 | 100 | 1009.7 |
| 20260506114543 | 13 | 158 | 4.8 | 12.9 | 0.00 | 0.10 | 0.00 | 100 | 1009.6 |
| 20260506114024 | 13 | 159 | 4.8 | 12.9 | 0.00 | 0.10 | 0.00 | 100 | 1009.7 |
| 20260506113524 | 13 | 167 | 4.8 | 12.9 | 0.00 | 0.10 | 0.00 | 100 | 1009.8 |
| 20260506113029 | 13 | 173 | 3.2 | 12.9 | 0.00 | 0.10 | 0.00 | 100 | 1009.7 |
| 20260506112529 | 13 | 132 | 3.2 | 6.4 | 0.00 | 0.10 | 0.00 | 100 | 1009.7 |
| 20260506112029 | 13 | 131 | 3.2 | 12.9 | 0.00 | 0.10 | 0.00 | 100 | 1009.8 |
| 20260506111529 | 13 | 78 | 6.4 | 12.9 | 0.00 | 0.10 | 0.00 | 100 | 1009.8 |
| 20260506111029 | 12 | 141 | 3.2 | 11.3 | 0.00 | 0.10 | 0.00 | 100 | 1009.7 |
| 20260506110529 | 12 | 150 | 4.8 | 12.9 | 0.00 | 0.10 | 0.00 | 100 | 1009.7 |
| 20260506110030 | 12 | 180 | 4.8 | 12.9 | 0.00 | 0.10 | 0.00 | 100 | 1009.7 |
| 20260506105529 | 12 | 160 | 6.4 | 12.9 | 0.00 | 0.10 | 0.00 | 100 | 1009.7 |
| 20260506105030 | 12 | 128 | 4.8 | 12.9 | 0.00 | 0.10 | 0.00 | 100 | 1009.8 |
| 20260506104550 | 12 | 175 | 4.8 | 12.9 | 0.00 | 0.10 | 0.00 | 100 | 1009.8 |
| 20260506104029 | 12 | 178 | 3.2 | 6.4 | 0.00 | 0.10 | 0.00 | 100 | 1009.9 |
| 20260506103101 | 11 | 162 | 3.2 | 8.0 | 0.00 | 0.10 | 0.00 | 100 | 1009.7 |
| 20260506102600 | 11 | 113 | 3.2 | 9.7 | 0.00 | 0.10 | 0.00 | 100 | 1009.7 |
| 20260506102101 | 11 | 98 | 0.0 | 8.0 | 0.00 | 0.10 | 0.00 | 100 | 1009.7 |
| 20260506101540 | 11 | 161 | 1.6 | 11.3 | 0.00 | 0.10 | 0.00 | 100 | 1009.8 |
| 20260506101041 | 11 | 149 | 1.6 | 9.7 | 0.00 | 0.10 | 0.00 | 100 | 1009.7 |
| 20260506100541 | 11 | 149 | 3.2 | 8.0 | 0.00 | 0.10 | 0.00 | 100 | 1009.6 |
| 20260506100043 | 11 | 149 | 0.0 | 4.8 | 0.00 | 0.10 | 0.00 | 100 | 1009.6 |
| 20260506095525 | 11 | 149 | 1.6 | 8.0 | 0.00 | 0.10 | 0.00 | 100 | 1009.6 |
| 20260506095025 | 11 | 149 | 1.6 | 8.0 | 0.00 | 0.10 | 0.00 | 100 | 1009.6 |
| 20260506094524 | 10 | 150 | 3.2 | 8.0 | 0.00 | 0.10 | 0.00 | 100 | 1009.5 |
| 20260506094046 | 10 | 148 | 1.6 | 9.7 | 0.00 | 0.10 | 0.00 | 100 | 1009.6 |
| 20260506093544 | 10 | 123 | 1.6 | 9.7 | 0.00 | 0.10 | 0.00 | 100 | 1009.5 |
| 20260506093046 | 11 | 87 | 1.6 | 4.8 | 0.00 | 0.10 | 0.00 | 100 | 1009.6 |
| 20260506092524 | 11 | 85 | 1.6 | 4.8 | 0.00 | 0.10 | 0.00 | 100 | 1009.5 |
| 20260506092025 | 11 | 190 | 3.2 | 9.7 | 0.00 | 0.10 | 0.00 | 100 | 1009.4 |
| 20260506091524 | 11 | 154 | 3.2 | 11.3 | 0.00 | 0.10 | 0.00 | 100 | 1009.5 |
| 20260506091044 | 11 | 142 | 3.2 | 11.3 | 0.00 | 0.10 | 0.00 | 100 | 1009.5 |
| 20260506090542 | 11 | 134 | 3.2 | 8.0 | 0.00 | 0.10 | 0.00 | 100 | 1009.5 |
| 20260506090043 | 11 | 143 | 3.2 | 8.0 | 0.00 | 0.10 | 0.00 | 100 | 1009.6 |
| 20260506085543 | 11 | 184 | 3.2 | 6.4 | 0.00 | 0.10 | 0.00 | 100 | 1009.6 |
| 20260506085104 | 11 | 186 | 3.2 | 6.4 | 0.00 | 0.10 | 0.00 | 100 | 1009.6 |
| 20260506084543 | 11 | 190 | 3.2 | 9.7 | 0.00 | 0.10 | 0.00 | 100 | 1009.6 |
| 20260506084024 | 11 | 150 | 3.2 | 9.7 | 0.00 | 0.10 | 0.00 | 100 | 1009.6 |
| 20260506083545 | 11 | 180 | 4.8 | 9.7 | 0.00 | 0.10 | 0.00 | 100 | 1009.6 |
| 20260506083025 | 11 | 173 | 3.2 | 9.7 | 0.00 | 0.10 | 0.00 | 100 | 1009.7 |
| 20260506082541 | 11 | 173 | 4.8 | 11.3 | 0.00 | 0.10 | 0.00 | 100 | 1009.6 |
| 20260506082037 | 11 | 167 | 4.8 | 11.3 | 0.00 | 0.10 | 0.00 | 100 | 1009.7 |
| 20260506081532 | 11 | 149 | 3.2 | 12.9 | 0.00 | 0.10 | 0.00 | 100 | 1009.7 |
| 20260506081027 | 11 | 172 | 6.4 | 12.9 | 0.00 | 0.10 | 0.00 | 100 | 1009.8 |
| 20260506080544 | 11 | 184 | 4.8 | 11.3 | 0.00 | 0.10 | 0.00 | 100 | 1009.7 |
| 20260506073034 | 11 | 180 | 6.4 | 11.3 | 0.00 | 0.10 | 0.00 | 100 | 1009.8 |
| 20260506072529 | 11 | 194 | 3.2 | 6.4 | 0.00 | 0.10 | 0.00 | 100 | 1009.7 |
| 20260506072045 | 11 | 146 | 3.2 | 4.8 | 0.00 | 0.10 | 0.00 | 100 | 1009.7 |
| 20260506071541 | 11 | 190 | 3.2 | 4.8 | 0.00 | 0.10 | 0.00 | 100 | 1009.7 |
| 20260506070524 | 11 | 194 | 3.2 | 12.9 | 0.00 | 0.10 | 0.00 | 100 | 1009.7 |
| 20260506062025 | 12 | 148 | 1.6 | 4.8 | 0.00 | 0.10 | 0.00 | 100 | 1009.7 |
| 20260506061526 | 12 | 148 | 3.2 | 4.8 | 0.00 | 0.10 | 0.00 | 100 | 1009.8 |
| 20260506061025 | 12 | 153 | 3.2 | 4.8 | 0.00 | 0.10 | 0.00 | 100 | 1009.8 |
| 20260506060526 | 12 | 163 | 1.6 | 8.0 | 0.00 | 0.10 | 0.00 | 100 | 1009.8 |
| 20260506051038 | 13 | 191 | 4.8 | 11.3 | 0.00 | 0.10 | 0.00 | 98 | 1010.3 |
| 20260506050559 | 13 | 134 | 3.2 | 14.5 | 0.00 | 0.10 | 0.00 | 98 | 1010.2 |
| 20260506045029 | 13 | 144 | 4.8 | 11.3 | 0.00 | 0.10 | 0.00 | 98 | 1010.2 |
| 20260506044529 | 13 | 292 | 3.2 | 11.3 | 0.00 | 0.10 | 0.00 | 98 | 1010.3 |
| 20260506044049 | 13 | 182 | 3.2 | 20.9 | 0.00 | 0.10 | 0.00 | 98 | 1010.2 |
| 20260506043533 | 13 | 196 | 4.8 | 16.1 | 0.00 | 0.10 | 0.00 | 98 | 1010.3 |
| 20260506043033 | 13 | 157 | 3.2 | 8.0 | 0.00 | 0.10 | 0.00 | 98 | 1010.4 |
| 20260506042535 | 14 | 157 | 3.2 | 8.0 | 0.00 | 0.10 | 0.00 | 98 | 1010.3 |
| 20260506042035 | 14 | 167 | 1.6 | 11.3 | 0.00 | 0.10 | 0.00 | 97 | 1010.3 |
| 20260506041536 | 14 | 167 | 3.2 | 11.3 | 0.00 | 0.10 | 0.00 | 97 | 1010.3 |
| 20260506041036 | 14 | 142 | 3.2 | 8.0 | 0.00 | 0.10 | 0.00 | 98 | 1010.3 |
| 20260506040536 | 14 | 122 | 3.2 | 6.4 | 0.00 | 0.10 | 0.00 | 97 | 1010.3 |
| 20260506040037 | 14 | 121 | 3.2 | 9.7 | 0.00 | 0.10 | 0.00 | 97 | 1010.3 |
| 20260506035542 | 14 | 118 | 4.8 | 12.9 | 0.00 | 0.10 | 0.10 | 97 | 1010.3 |
| 20260506035044 | 14 | 168 | 4.8 | 12.9 | 0.00 | 0.10 | 0.10 | 97 | 1010.3 |
| 20260506034544 | 14 | 126 | 4.8 | 11.3 | 0.00 | 0.10 | 0.10 | 97 | 1010.4 |
| 20260506034025 | 14 | 143 | 4.8 | 11.3 | 0.00 | 0.10 | 0.10 | 97 | 1010.3 |
| 20260506033526 | 14 | 186 | 4.8 | 11.3 | 0.00 | 0.10 | 0.10 | 97 | 1010.4 |
| 20260506032539 | 14 | 134 | 3.2 | 17.7 | 0.00 | 0.10 | 0.10 | 97 | 1010.4 |
| 20260506032039 | 14 | 159 | 3.2 | 17.7 | 0.00 | 0.10 | 0.10 | 97 | 1010.3 |
| 20260506031601 | 14 | 126 | 3.2 | 17.7 | 0.00 | 0.10 | 0.10 | 97 | 1010.3 |
| 20260506031040 | 14 | 126 | 3.2 | 11.3 | 0.00 | 0.10 | 0.10 | 97 | 1010.4 |
| 20260506030602 | 14 | 167 | 4.8 | 11.3 | 0.00 | 0.10 | 0.10 | 97 | 1010.3 |
| 20260506030040 | 14 | 168 | 3.2 | 11.3 | 0.00 | 0.10 | 0.10 | 97 | 1010.3 |
| 20260506025601 | 14 | 171 | 3.2 | 11.3 | 0.00 | 0.10 | 0.10 | 97 | 1010.2 |
| 20260506025044 | 14 | 334 | 3.2 | 9.7 | 0.00 | 0.10 | 0.10 | 97 | 1010.3 |
| 20260506024525 | 14 | 130 | 3.2 | 6.4 | 0.00 | 0.10 | 0.10 | 96 | 1010.2 |
| 20260506024025 | 14 | 130 | 3.2 | 9.7 | 0.00 | 0.10 | 0.10 | 96 | 1010.2 |
| 20260506023526 | 14 | 351 | 3.2 | 8.0 | 0.00 | 0.10 | 0.10 | 96 | 1010.2 |
| 20260506023047 | 15 | 114 | 3.2 | 12.9 | 0.00 | 0.10 | 0.10 | 96 | 1010.2 |
| 20260506022528 | 15 | 157 | 3.2 | 12.9 | 0.00 | 0.10 | 0.10 | 96 | 1010.2 |
| 20260506022028 | 15 | 149 | 3.2 | 8.0 | 0.00 | 0.10 | 0.10 | 95 | 1010.1 |
| 20260506021528 | 15 | 184 | 1.6 | 6.4 | 0.00 | 0.10 | 0.10 | 95 | 1010.1 |
| 20260506021028 | 15 | 153 | 4.8 | 14.5 | 0.00 | 0.10 | 0.10 | 96 | 1010.3 |
| 20260506020529 | 15 | 206 | 1.6 | 14.5 | 0.00 | 0.10 | 0.10 | 95 | 1010.2 |
| 20260506020049 | 15 | 90 | 3.2 | 8.0 | 0.00 | 0.10 | 0.10 | 95 | 1010.1 |
| 20260506015529 | 15 | 173 | 3.2 | 9.7 | 0.00 | 0.10 | 0.10 | 96 | 1010.2 |
| 20260506015049 | 15 | 165 | 4.8 | 9.7 | 0.00 | 0.10 | 0.10 | 96 | 1010.2 |
| 20260506014529 | 15 | 179 | 1.6 | 3.2 | 0.00 | 0.10 | 0.10 | 95 | 1010.1 |
| 20260506014029 | 15 | 179 | 1.6 | 6.4 | 0.00 | 0.10 | 0.10 | 95 | 1009.9 |
| 20260506013550 | 15 | 179 | 1.6 | 6.4 | 0.00 | 0.10 | 0.10 | 95 | 1010.0 |
| 20260506013034 | 15 | 141 | 1.6 | 3.2 | 0.00 | 0.10 | 0.10 | 95 | 1010.0 |
| 20260506012534 | 15 | 141 | 0.0 | 1.6 | 0.00 | 0.10 | 0.10 | 95 | 1009.9 |
| 20260506012035 | 15 | 141 | 0.0 | 1.6 | 0.00 | 0.10 | 0.10 | 95 | 1009.8 |
| 20260506011535 | 15 | 141 | 0.0 | 1.6 | 0.00 | 0.10 | 0.10 | 95 | 1009.7 |
| 20260506011055 | 15 | 141 | 0.0 | 1.6 | 0.00 | 0.10 | 0.10 | 95 | 1009.7 |
| 20260506010536 | 15 | 141 | 0.0 | 3.2 | 0.00 | 0.10 | 0.10 | 95 | 1009.7 |
| 20260506010036 | 15 | 141 | 1.6 | 3.2 | 0.00 | 0.10 | 0.10 | 94 | 1009.7 |
| 20260506005537 | 15 | 141 | 0.0 | 1.6 | 0.00 | 0.10 | 0.10 | 94 | 1009.6 |
| 20260506005037 | 15 | 141 | 0.0 | 1.6 | 0.00 | 0.10 | 0.10 | 93 | 1009.6 |
| 20260506004538 | 15 | 141 | 1.6 | 3.2 | 0.00 | 0.10 | 0.10 | 93 | 1009.5 |
| 20260506003549 | 15 | 141 | 1.6 | 6.4 | 0.00 | 0.10 | 0.10 | 92 | 1009.4 |
| 20260506003029 | 16 | 141 | 3.2 | 11.3 | 0.00 | 0.10 | 0.10 | 92 | 1009.3 |
| 20260506002529 | 16 | 126 | 1.6 | 11.3 | 0.00 | 0.10 | 0.10 | 91 | 1009.2 |
| 20260506002029 | 16 | 147 | 1.6 | 8.0 | 0.00 | 0.10 | 0.10 | 91 | 1009.1 |
| 20260506001529 | 16 | 163 | 3.2 | 9.7 | 0.00 | 0.10 | 0.10 | 91 | 1009.0 |
| 20260506001030 | 16 | 182 | 1.6 | 8.0 | 0.00 | 0.10 | 0.10 | 90 | 1008.9 |
| 20260506000534 | 16 | 182 | 3.2 | 8.0 | 0.00 | 0.10 | 0.10 | 89 | 1008.8 |
| 20260506000035 | 16 | 146 | 1.6 | 6.4 | 0.00 | 0.10 | 0.10 | 88 | 1008.8 |
| 20260505235535 | 16 | 188 | 1.6 | 11.3 | 0.00 | 0.10 | 0.10 | 88 | 1008.8 |
| 20260505235035 | 16 | 169 | 4.8 | 14.5 | 0.00 | 0.10 | 0.10 | 88 | 1008.7 |
| 20260505234555 | 17 | 161 | 4.8 | 20.9 | 0.00 | 0.10 | 0.10 | 87 | 1008.6 |
| 20260505234033 | 17 | 126 | 4.8 | 20.9 | 0.00 | 0.10 | 0.10 | 87 | 1008.5 |
| 20260505233552 | 17 | 140 | 6.4 | 9.7 | 0.00 | 0.10 | 0.10 | 87 | 1008.5 |
| 20260505233031 | 17 | 152 | 4.8 | 11.3 | 0.00 | 0.10 | 0.10 | 87 | 1008.5 |
| 20260505232529 | 17 | 151 | 4.8 | 14.5 | 0.00 | 0.10 | 0.10 | 86 | 1008.4 |
| 20260505232029 | 18 | 118 | 4.8 | 11.3 | 0.00 | 0.10 | 0.10 | 85 | 1008.5 |
| 20260505231529 | 18 | 160 | 3.2 | 14.5 | 0.00 | 0.10 | 0.10 | 84 | 1008.4 |
| 20260505231028 | 18 | 113 | 8.0 | 16.1 | 0.00 | 0.10 | 0.10 | 83 | 1008.2 |
| 20260505230528 | 18 | 119 | 4.8 | 9.7 | 0.00 | 0.10 | 0.10 | 83 | 1008.2 |
| 20260505230029 | 18 | 171 | 4.8 | 11.3 | 0.00 | 0.10 | 0.10 | 84 | 1008.1 |
| 20260505225529 | 18 | 155 | 3.2 | 19.3 | 0.00 | 0.10 | 0.10 | 83 | 1008.1 |
| 20260505225034 | 19 | 165 | 6.4 | 19.3 | 0.00 | 0.10 | 0.10 | 81 | 1008.0 |
| 20260505224535 | 19 | 167 | 8.0 | 24.1 | 0.00 | 0.10 | 0.10 | 81 | 1008.0 |
| 20260505223525 | 20 | 170 | 8.0 | 16.1 | 0.00 | 0.10 | 0.10 | 79 | 1007.8 |
| 20260505223028 | 20 | 115 | 6.4 | 14.5 | 0.00 | 0.10 | 0.10 | 79 | 1007.8 |
| 20260505222528 | 20 | 178 | 6.4 | 16.1 | 0.00 | 0.10 | 0.10 | 78 | 1007.8 |
| 20260505222028 | 20 | 182 | 8.0 | 22.5 | 0.00 | 0.10 | 0.10 | 78 | 1007.6 |
| 20260505221528 | 20 | 180 | 8.0 | 16.1 | 0.00 | 0.10 | 0.10 | 77 | 1007.5 |
| 20260505221029 | 21 | 168 | 8.0 | 19.3 | 0.00 | 0.10 | 0.10 | 77 | 1007.6 |
| 20260505220529 | 21 | 199 | 8.0 | 20.9 | 0.00 | 0.10 | 0.10 | 77 | 1007.6 |
| 20260505220028 | 21 | 145 | 6.4 | 17.7 | 0.00 | 0.10 | 0.10 | 75 | 1007.6 |
| 20260505215527 | 21 | 172 | 6.4 | 17.7 | 0.00 | 0.10 | 0.10 | 76 | 1007.7 |
| 20260505214538 | 21 | 138 | 8.0 | 17.7 | 0.00 | 0.10 | 0.10 | 73 | 1007.8 |
| 20260505214038 | 21 | 155 | 8.0 | 17.7 | 0.00 | 0.10 | 0.10 | 73 | 1007.8 |
| 20260505213539 | 21 | 160 | 4.8 | 14.5 | 0.00 | 0.10 | 0.10 | 74 | 1007.9 |
| 20260505213038 | 22 | 142 | 6.4 | 22.5 | 0.00 | 0.10 | 0.10 | 72 | 1007.7 |
| 20260505212538 | 22 | 134 | 8.0 | 22.5 | 0.00 | 0.10 | 0.10 | 71 | 1007.7 |
| 20260505212041 | 22 | 178 | 9.7 | 19.3 | 0.00 | 0.10 | 0.10 | 74 | 1007.7 |
| 20260505211033 | 22 | 173 | 9.7 | 22.5 | 0.00 | 0.10 | 0.10 | 72 | 1007.5 |
| 20260505210533 | 22 | 128 | 8.0 | 16.1 | 0.00 | 0.10 | 0.10 | 72 | 1007.5 |
| 20260505210033 | 22 | 140 | 6.4 | 16.1 | 0.00 | 0.10 | 0.10 | 71 | 1007.6 |
| 20260505205534 | 22 | 163 | 9.7 | 16.1 | 0.00 | 0.10 | 0.10 | 71 | 1007.5 |
| 20260505205054 | 23 | 152 | 8.0 | 22.5 | 0.00 | 0.10 | 0.10 | 72 | 1007.6 |
| 20260505204533 | 23 | 209 | 9.7 | 22.5 | 0.00 | 0.10 | 0.10 | 70 | 1007.5 |
| 20260505204054 | 23 | 126 | 4.8 | 20.9 | 0.00 | 0.10 | 0.10 | 72 | 1007.6 |
| 20260505203532 | 23 | 123 | 8.0 | 22.5 | 0.00 | 0.10 | 0.10 | 70 | 1007.5 |
| 20260505203033 | 23 | 144 | 11.3 | 22.5 | 0.00 | 0.10 | 0.10 | 68 | 1007.5 |
| 20260505202533 | 23 | 179 | 8.0 | 22.5 | 0.00 | 0.10 | 0.10 | 69 | 1007.5 |